createdAt,value
2018-02-03T00:01:37.232Z,17.20
2018-02-03T00:04:05.870Z,17.00
2018-02-03T00:06:33.944Z,17.00
2018-02-03T00:09:01.834Z,17.10
2018-02-03T00:11:29.784Z,17.10
2018-02-03T00:13:58.049Z,16.90
2018-02-03T00:16:26.165Z,16.90
2018-02-03T00:18:54.786Z,16.90
2018-02-03T00:21:22.876Z,16.90
2018-02-03T00:23:50.784Z,16.90
2018-02-03T00:26:18.802Z,16.90
2018-02-03T00:28:46.822Z,16.90
2018-02-03T00:31:14.716Z,16.80
2018-02-03T00:33:43.486Z,16.80
2018-02-03T00:36:11.517Z,16.80
2018-02-03T00:38:39.398Z,16.90
2018-02-03T00:41:07.310Z,16.90
2018-02-03T00:43:36.088Z,16.90
2018-02-03T00:46:03.994Z,16.90
2018-02-03T00:48:32.160Z,16.90
2018-02-03T00:51:00.170Z,16.90
2018-02-03T00:53:28.070Z,17.00
2018-02-03T00:55:55.976Z,17.10
2018-02-03T00:58:24.004Z,17.10
2018-02-03T01:00:51.925Z,17.00
2018-02-03T01:03:19.819Z,16.90
2018-02-03T01:05:47.848Z,16.90
2018-02-03T01:08:16.496Z,16.80
2018-02-03T01:10:44.409Z,16.80
2018-02-03T01:13:12.448Z,16.80
2018-02-03T01:15:40.322Z,16.80
2018-02-03T01:18:08.971Z,16.70
2018-02-03T01:20:36.997Z,16.80
2018-02-03T01:23:05.626Z,16.90
2018-02-03T01:25:33.571Z,16.80
2018-02-03T01:28:01.616Z,16.90
2018-02-03T01:30:30.250Z,16.90
2018-02-03T01:32:58.160Z,16.80
2018-02-03T01:35:26.336Z,16.90
2018-02-03T01:37:54.972Z,16.80
2018-02-03T01:40:22.862Z,16.80
2018-02-03T01:42:50.891Z,16.80
2018-02-03T01:45:18.777Z,16.80
2018-02-03T01:47:53.324Z,16.80
2018-02-03T01:50:21.248Z,16.70
2018-02-03T01:52:49.147Z,16.70
2018-02-03T01:55:17.194Z,16.70
2018-02-03T01:57:45.081Z,16.60
2018-02-03T02:00:12.988Z,16.60
2018-02-03T02:02:40.998Z,16.50
2018-02-03T02:05:08.934Z,16.60
2018-02-03T02:07:36.826Z,16.60
2018-02-03T02:10:05.606Z,16.50
2018-02-03T02:12:33.512Z,16.50
2018-02-03T02:15:01.417Z,16.50
2018-02-03T02:17:29.430Z,16.50
2018-02-03T02:19:58.078Z,16.40
2018-02-03T02:22:25.971Z,16.30
2018-02-03T02:24:54.737Z,16.30
2018-02-03T02:27:22.750Z,16.30
2018-02-03T02:29:51.512Z,16.40
2018-02-03T02:32:19.560Z,16.40
2018-02-03T02:34:47.456Z,16.40
2018-02-03T02:37:16.254Z,16.20
2018-02-03T02:39:45.014Z,16.30
2018-02-03T02:42:12.918Z,16.20
2018-02-03T02:44:41.575Z,16.20
2018-02-03T02:47:09.740Z,16.20
2018-02-03T02:49:37.652Z,16.10
2018-02-03T02:52:06.369Z,16.10
2018-02-03T02:54:34.404Z,16.10
2018-02-03T02:57:03.152Z,16.10
2018-02-03T02:59:31.065Z,16.00
2018-02-03T03:01:59.933Z,16.20
2018-02-03T03:04:27.838Z,16.20
2018-02-03T03:06:55.798Z,16.10
2018-02-03T03:09:24.576Z,16.10
2018-02-03T03:11:53.205Z,16.20
2018-02-03T03:14:21.133Z,16.20
2018-02-03T03:16:49.966Z,16.20
2018-02-03T03:19:17.850Z,16.20
2018-02-03T03:21:45.755Z,16.30
2018-02-03T03:24:13.795Z,16.30
2018-02-03T03:26:41.677Z,16.30
2018-02-03T03:29:09.580Z,16.30
2018-02-03T03:31:38.329Z,16.30
2018-02-03T03:34:06.236Z,16.30
2018-02-03T03:36:34.862Z,16.10
2018-02-03T03:39:03.104Z,16.20
2018-02-03T03:41:31.748Z,16.10
2018-02-03T03:43:59.637Z,16.10
2018-02-03T03:46:27.675Z,16.20
2018-02-03T03:48:55.572Z,16.30
2018-02-03T03:51:23.474Z,16.40
2018-02-03T03:53:51.515Z,16.60
2018-02-03T03:56:19.514Z,16.70
2018-02-03T03:58:48.151Z,20.40
2018-02-03T04:01:16.199Z,20.40
2018-02-03T04:03:44.104Z,21.80
2018-02-03T04:06:12.016Z,21.80
2018-02-03T04:08:40.165Z,20.70
2018-02-03T04:11:08.816Z,19.10
2018-02-03T04:13:36.708Z,19.00
2018-02-03T04:16:04.852Z,18.80
2018-02-03T04:18:32.906Z,18.60
2018-02-03T04:21:00.789Z,18.50
2018-02-03T04:23:29.012Z,18.50
2018-02-03T04:25:57.905Z,18.60
2018-02-03T04:28:26.556Z,18.50
2018-02-03T04:30:54.708Z,18.50
2018-02-03T04:33:22.586Z,18.60
2018-02-03T04:35:50.487Z,18.70
2018-02-03T04:38:18.792Z,18.90
2018-02-03T04:40:47.690Z,18.90
2018-02-03T04:43:16.393Z,19.00
2018-02-03T04:45:44.475Z,19.00
2018-02-03T04:48:13.348Z,19.40
2018-02-03T04:50:42.001Z,19.80
2018-02-03T04:53:10.048Z,19.80
2018-02-03T04:55:37.952Z,19.70
2018-02-03T04:58:06.609Z,20.10
2018-02-03T05:00:34.654Z,20.10
2018-02-03T05:03:02.542Z,20.30
2018-02-03T05:05:30.433Z,20.20
2018-02-03T05:07:58.458Z,20.10
2018-02-03T05:10:26.353Z,20.20
2018-02-03T05:12:54.298Z,20.40
2018-02-03T05:15:22.568Z,20.00
2018-02-03T05:17:50.462Z,20.10
2018-02-03T05:20:18.358Z,20.20
2018-02-03T05:22:46.369Z,20.60
2018-02-03T05:25:14.250Z,20.70
2018-02-03T05:27:42.129Z,20.80
2018-02-03T05:30:10.185Z,20.60
2018-02-03T05:32:39.060Z,20.80
2018-02-03T05:35:07.835Z,21.30
2018-02-03T05:37:36.980Z,21.40
2018-02-03T05:40:05.039Z,21.30
2018-02-03T05:42:33.189Z,21.40
2018-02-03T05:45:05.317Z,21.20
2018-02-03T05:47:33.290Z,21.20
2018-02-03T05:52:43.866Z,22.10
2018-02-03T05:55:11.814Z,22.40
2018-02-03T05:57:39.713Z,22.50
2018-02-03T06:00:07.626Z,22.40
2018-02-03T06:02:35.689Z,22.80
2018-02-03T06:05:04.344Z,23.30
2018-02-03T06:07:32.273Z,23.30
2018-02-03T06:10:00.330Z,24.30
2018-02-03T06:12:28.281Z,25.50
2018-02-03T06:14:56.931Z,26.10
2018-02-03T06:17:25.595Z,26.10
2018-02-03T06:19:53.518Z,26.80
2018-02-03T06:22:21.469Z,26.40
2018-02-03T06:24:49.728Z,26.20
2018-02-03T06:27:17.674Z,25.70
2018-02-03T06:29:45.598Z,25.70
2018-02-03T06:32:15.327Z,25.60
2018-02-03T06:34:43.312Z,25.60
2018-02-03T06:37:11.929Z,24.80
2018-02-03T06:39:39.967Z,24.80
2018-02-03T06:42:08.632Z,24.90
2018-02-03T06:44:36.688Z,24.90
2018-02-03T06:47:04.949Z,24.70
2018-02-03T06:49:32.878Z,24.70
2018-02-03T06:52:01.524Z,24.60
2018-02-03T06:54:29.552Z,24.60
2018-02-03T06:56:57.531Z,24.10
2018-02-03T06:59:25.656Z,24.10
2018-02-03T07:01:53.829Z,24.30
2018-02-03T07:04:21.722Z,24.50
2018-02-03T07:06:50.398Z,24.40
2018-02-03T07:09:21.158Z,24.30
2018-02-03T07:11:49.331Z,24.30
2018-02-03T07:14:17.240Z,24.60
2018-02-03T07:16:45.285Z,24.50
2018-02-03T07:19:13.253Z,24.30
2018-02-03T07:21:41.145Z,24.10
2018-02-03T07:24:09.286Z,24.20
2018-02-03T07:26:37.616Z,24.40
2018-02-03T07:29:05.638Z,24.50
2018-02-03T07:31:33.666Z,24.70
2018-02-03T07:34:01.569Z,24.90
2018-02-03T07:36:29.574Z,25.40
2018-02-03T07:38:57.692Z,26.20
2018-02-03T07:41:26.340Z,25.70
2018-02-03T07:43:54.252Z,25.70
2018-02-03T07:46:23.188Z,25.30
2018-02-03T07:48:51.092Z,25.30
2018-02-03T07:51:18.992Z,25.40
2018-02-03T07:53:47.745Z,25.20
2018-02-03T07:56:16.299Z,25.10
2018-02-03T07:58:44.225Z,25.10
2018-02-03T08:01:12.998Z,25.00
2018-02-03T08:03:41.023Z,25.00
2018-02-03T08:06:09.162Z,25.00
2018-02-03T08:08:40.439Z,25.20
2018-02-03T08:11:08.512Z,25.20
2018-02-03T08:13:36.455Z,25.30
2018-02-03T08:16:05.464Z,25.30
2018-02-03T08:18:33.355Z,25.30
2018-02-03T08:21:01.257Z,25.20
2018-02-03T08:23:29.278Z,25.30
2018-02-03T08:25:57.242Z,25.20
2018-02-03T08:28:25.130Z,25.40
2018-02-03T08:30:53.157Z,25.40
2018-02-03T08:33:21.128Z,25.60
2018-02-03T08:35:49.988Z,25.40
2018-02-03T08:38:18.005Z,25.40
2018-02-03T08:40:46.646Z,25.20
2018-02-03T08:43:14.597Z,25.20
2018-02-03T08:45:42.704Z,25.20
2018-02-03T08:48:10.810Z,25.30
2018-02-03T08:50:39.475Z,25.40
2018-02-03T08:53:07.501Z,25.40
2018-02-03T08:55:35.394Z,25.30
2018-02-03T08:58:03.296Z,25.50
2018-02-03T09:00:32.119Z,25.60
2018-02-03T09:03:00.272Z,25.60
2018-02-03T09:05:28.996Z,25.70
2018-02-03T09:07:57.422Z,25.60
2018-02-03T09:10:25.311Z,25.60
2018-02-03T09:12:53.962Z,25.50
2018-02-03T09:15:22.004Z,25.50
2018-02-03T09:17:49.885Z,25.70
2018-02-03T09:20:17.792Z,25.60
2018-02-03T09:22:46.572Z,25.60
2018-02-03T09:25:14.504Z,25.60
2018-02-03T09:27:42.390Z,25.60
2018-02-03T09:30:10.456Z,25.70
2018-02-03T09:32:38.353Z,25.70
2018-02-03T09:35:06.245Z,25.70
2018-02-03T09:37:35.046Z,25.50
2018-02-03T09:40:02.961Z,25.50
2018-02-03T09:42:30.844Z,25.50
2018-02-03T09:44:58.989Z,25.50
2018-02-03T09:47:27.064Z,25.40
2018-02-03T09:49:55.094Z,25.40
2018-02-03T09:52:23.910Z,25.40
2018-02-03T09:54:51.824Z,25.40
2018-02-03T09:57:19.856Z,25.50
2018-02-03T09:59:47.896Z,25.50
2018-02-03T10:02:16.511Z,25.10
2018-02-03T10:04:44.424Z,25.10
2018-02-03T10:07:12.580Z,25.00
2018-02-03T10:09:40.484Z,25.10
2018-02-03T10:12:09.363Z,25.10
2018-02-03T10:14:37.392Z,25.10
2018-02-03T10:17:05.346Z,25.00
2018-02-03T10:19:33.256Z,25.00
2018-02-03T10:22:01.278Z,24.90
2018-02-03T10:24:29.172Z,24.90
2018-02-03T10:26:57.124Z,24.80
2018-02-03T10:29:25.398Z,24.80
2018-02-03T10:31:53.312Z,24.80
2018-02-03T10:34:21.226Z,24.60
2018-02-03T10:36:50.079Z,24.70
2018-02-03T10:39:18.000Z,24.70
2018-02-03T10:41:45.912Z,24.60
2018-02-03T10:44:13.952Z,24.60
2018-02-03T10:46:41.899Z,24.60
2018-02-03T10:49:09.778Z,24.50
2018-02-03T10:51:37.805Z,24.50
2018-02-03T10:54:05.840Z,24.50
2018-02-03T10:56:33.717Z,24.50
2018-02-03T10:59:01.748Z,24.50
2018-02-03T11:01:30.389Z,24.50
2018-02-03T11:03:58.304Z,24.50
2018-02-03T11:06:27.069Z,24.50
2018-02-03T11:08:55.104Z,24.40
2018-02-03T11:11:23.017Z,24.40
2018-02-03T11:13:51.778Z,24.30
2018-02-03T11:16:19.669Z,24.30
2018-02-03T11:18:47.557Z,24.30
2018-02-03T11:21:16.337Z,24.30
2018-02-03T11:23:44.989Z,24.30
2018-02-03T11:26:12.966Z,24.30
2018-02-03T11:28:41.013Z,24.20
2018-02-03T11:31:08.893Z,24.10
2018-02-03T11:33:36.782Z,24.10
2018-02-03T11:36:04.907Z,24.00
2018-02-03T11:38:32.862Z,24.00
2018-02-03T11:41:00.751Z,23.80
2018-02-03T11:43:28.778Z,23.80
2018-02-03T11:45:56.682Z,23.90
2018-02-03T11:48:24.569Z,23.80
2018-02-03T11:50:52.598Z,23.80
2018-02-03T11:53:21.373Z,23.60
2018-02-03T11:55:49.270Z,23.60
2018-02-03T11:58:17.306Z,23.50
2018-02-03T12:00:45.209Z,23.50
2018-02-03T12:03:13.867Z,23.40
2018-02-03T12:05:41.948Z,23.40
2018-02-03T12:08:10.585Z,23.50
2018-02-03T12:10:38.493Z,23.40
2018-02-03T12:13:06.540Z,23.40
2018-02-03T12:15:34.438Z,23.40
2018-02-03T12:18:02.354Z,23.40
2018-02-03T12:20:30.377Z,23.40
2018-02-03T12:22:58.398Z,23.40
2018-02-03T12:25:26.316Z,23.40
2018-02-03T12:27:54.360Z,23.30
2018-02-03T12:30:22.268Z,23.30
2018-02-03T12:32:50.912Z,23.20
2018-02-03T12:35:18.961Z,23.20
2018-02-03T12:37:46.873Z,23.20
2018-02-03T12:40:14.762Z,23.20
2018-02-03T12:42:43.538Z,23.10
2018-02-03T12:45:11.452Z,23.10
2018-02-03T12:47:39.333Z,23.00
2018-02-03T12:50:07.374Z,23.10
2018-02-03T12:52:36.014Z,23.10
2018-02-03T12:55:04.142Z,23.10
2018-02-03T12:57:32.918Z,23.00
2018-02-03T13:00:01.553Z,22.90
2018-02-03T13:02:29.485Z,22.90
2018-02-03T13:04:58.252Z,22.90
2018-02-03T13:07:26.238Z,22.90
2018-02-03T13:09:54.884Z,22.90
2018-02-03T13:12:22.920Z,22.90
2018-02-03T13:14:50.834Z,22.80
2018-02-03T13:17:18.739Z,22.70
2018-02-03T13:19:47.481Z,22.70
2018-02-03T13:22:15.382Z,22.60
2018-02-03T13:24:44.180Z,22.70
2018-02-03T13:27:13.010Z,22.70
2018-02-03T13:29:40.893Z,22.60
2018-02-03T13:32:08.820Z,22.70
2018-02-03T13:34:37.098Z,22.60
2018-02-03T13:37:05.062Z,22.50
2018-02-03T13:39:33.961Z,22.50
2018-02-03T13:42:01.995Z,22.40
2018-02-03T13:44:29.894Z,22.40
2018-02-03T13:46:57.849Z,22.40
2018-02-03T13:49:26.627Z,22.40
2018-02-03T13:51:54.519Z,22.30
2018-02-03T13:54:23.300Z,22.40
2018-02-03T13:56:52.249Z,22.40
2018-02-03T13:59:20.156Z,22.30
2018-02-03T14:01:48.058Z,22.20
2018-02-03T14:04:16.096Z,22.10
2018-02-03T14:06:44.140Z,22.20
2018-02-03T14:09:12.034Z,22.20
2018-02-03T14:11:40.062Z,22.10
2018-02-03T14:14:08.060Z,22.20
2018-02-03T14:16:35.950Z,22.20
2018-02-03T14:19:04.708Z,22.10
2018-02-03T14:21:32.624Z,22.10
2018-02-03T14:24:07.029Z,22.00
2018-02-03T14:26:35.681Z,22.00
2018-02-03T14:29:03.549Z,22.00
2018-02-03T14:31:31.454Z,22.00
2018-02-03T14:34:00.137Z,22.00
2018-02-03T14:36:28.796Z,21.90
2018-02-03T14:38:56.828Z,21.90
2018-02-03T14:41:24.876Z,21.90
2018-02-03T14:43:53.495Z,21.80
2018-02-03T14:46:21.590Z,21.80
2018-02-03T14:48:49.505Z,21.90
2018-02-03T14:51:18.152Z,21.90
2018-02-03T14:53:46.184Z,21.80
2018-02-03T14:56:14.164Z,21.90
2018-02-03T14:58:42.244Z,21.90
2018-02-03T15:01:10.297Z,21.80
2018-02-03T15:03:38.224Z,21.80
2018-02-03T15:06:06.124Z,21.70
2018-02-03T15:08:34.932Z,21.80
2018-02-03T15:11:02.811Z,21.80
2018-02-03T15:13:30.712Z,21.80
2018-02-03T15:15:58.755Z,21.80
2018-02-03T15:18:26.664Z,21.80
2018-02-03T15:20:54.583Z,21.80
2018-02-03T15:23:22.632Z,21.70
2018-02-03T15:25:51.326Z,21.80
2018-02-03T15:28:19.989Z,21.70
2018-02-03T15:30:47.997Z,21.70
2018-02-03T15:33:15.920Z,21.80
2018-02-03T15:35:43.934Z,21.60
2018-02-03T15:38:12.081Z,21.70
2018-02-03T15:40:40.720Z,21.80
2018-02-03T15:43:08.614Z,21.80
2018-02-03T15:45:36.649Z,21.70
2018-02-03T15:48:05.747Z,21.60
2018-02-03T15:50:33.655Z,21.60
2018-02-03T15:53:01.609Z,21.70
2018-02-03T15:55:29.484Z,21.60
2018-02-03T15:57:57.374Z,21.60
2018-02-03T16:00:25.435Z,21.70
2018-02-03T16:02:53.328Z,21.60
2018-02-03T16:05:21.371Z,21.60
2018-02-03T16:07:49.500Z,21.60
2018-02-03T16:10:17.407Z,21.50
2018-02-03T16:12:45.542Z,21.60
2018-02-03T16:15:13.578Z,21.50
2018-02-03T16:17:41.554Z,21.60
2018-02-03T16:20:10.328Z,21.40
2018-02-03T16:22:38.572Z,21.50
2018-02-03T16:25:06.454Z,21.50
2018-02-03T16:27:34.372Z,21.50
2018-02-03T16:30:03.144Z,21.40
2018-02-03T16:32:31.156Z,21.40
2018-02-03T16:35:25.681Z,21.40
2018-02-03T16:37:56.729Z,21.30
2018-02-03T16:40:28.843Z,21.40
2018-02-03T16:42:56.818Z,21.50
2018-02-03T16:45:24.786Z,21.40
2018-02-03T16:47:52.875Z,21.40
2018-02-03T16:50:20.941Z,21.50
2018-02-03T16:52:49.013Z,21.50
2018-02-03T16:55:18.014Z,21.40
2018-02-03T16:57:46.011Z,21.40
2018-02-03T17:00:14.032Z,21.50
2018-02-03T17:02:42.378Z,21.40
2018-02-03T17:05:15.212Z,21.50
2018-02-03T17:07:43.792Z,21.40
2018-02-03T17:10:12.351Z,21.40
2018-02-03T17:12:41.104Z,21.40
2018-02-03T17:15:09.873Z,21.40
2018-02-03T17:17:37.882Z,21.40
2018-02-03T17:20:05.882Z,21.40
2018-02-03T17:22:34.011Z,21.40
2018-02-03T17:25:02.748Z,21.30
2018-02-03T17:27:31.077Z,21.30
2018-02-03T17:29:59.860Z,21.40
2018-02-03T17:32:28.618Z,21.30
2018-02-03T17:34:57.271Z,21.30
2018-02-03T17:37:33.051Z,21.30
2018-02-03T17:40:06.950Z,21.30
2018-02-03T17:42:38.032Z,21.30
2018-02-03T17:45:12.489Z,21.20
2018-02-03T17:47:40.685Z,21.20
2018-02-03T17:50:08.982Z,21.20
2018-02-03T17:52:36.902Z,21.20
2018-02-03T17:55:05.776Z,21.20
2018-02-03T17:57:40.659Z,21.20
2018-02-03T18:00:09.395Z,21.20
2018-02-03T18:02:37.683Z,21.10
2018-02-03T18:05:06.497Z,21.00
2018-02-03T18:07:34.566Z,21.10
2018-02-03T18:10:02.613Z,21.10
2018-02-03T18:12:31.284Z,21.10
2018-02-03T18:14:59.344Z,21.10
2018-02-03T18:17:27.388Z,21.10
2018-02-03T18:19:55.418Z,21.10
2018-02-03T18:22:24.090Z,21.10
2018-02-03T18:24:52.078Z,21.10
2018-02-03T18:27:20.900Z,21.10
2018-02-03T18:29:48.824Z,21.10
2018-02-03T18:32:16.748Z,21.20
2018-02-03T18:34:44.631Z,21.20
2018-02-03T18:37:12.576Z,21.10
2018-02-03T18:39:40.457Z,21.00
2018-02-03T18:42:08.353Z,21.00
2018-02-03T18:44:36.382Z,21.00
2018-02-03T18:47:04.326Z,21.00
2018-02-03T18:49:32.992Z,21.00
2018-02-03T18:52:01.041Z,21.00
2018-02-03T18:54:28.934Z,20.90
2018-02-03T18:56:56.934Z,20.90
2018-02-03T18:59:25.915Z,20.80
2018-02-03T19:01:54.608Z,20.90
2018-02-03T19:04:23.316Z,20.80
2018-02-03T19:06:51.632Z,20.80
2018-02-03T19:09:19.577Z,20.70
2018-02-03T19:11:47.469Z,20.80
2018-02-03T19:14:15.579Z,20.70
2018-02-03T19:16:44.277Z,20.80
2018-02-03T19:19:12.914Z,20.80
2018-02-03T19:21:40.946Z,20.70
2018-02-03T19:24:08.849Z,20.70
2018-02-03T19:26:36.792Z,20.70
2018-02-03T19:29:04.802Z,20.70
2018-02-03T19:31:32.677Z,20.70
2018-02-03T19:34:00.576Z,20.60
2018-02-03T19:36:29.386Z,20.70
2018-02-03T19:38:57.344Z,20.70
2018-02-03T19:41:25.985Z,20.70
2018-02-03T19:43:54.023Z,20.70
2018-02-03T19:46:21.924Z,20.70
2018-02-03T19:48:49.840Z,20.70
2018-02-03T19:51:18.628Z,20.70
2018-02-03T19:53:47.498Z,20.70
2018-02-03T19:56:15.477Z,20.70
2018-02-03T19:58:44.255Z,20.70
2018-02-03T20:01:12.180Z,20.60
2018-02-03T20:03:40.088Z,20.60
2018-02-03T20:06:08.240Z,20.60
2018-02-03T20:08:36.301Z,20.60
2018-02-03T20:11:04.202Z,20.60
2018-02-03T20:13:32.222Z,20.60
2018-02-03T20:16:00.103Z,20.60
2018-02-03T20:18:28.036Z,20.50
2018-02-03T20:20:56.088Z,20.50
2018-02-03T20:23:23.969Z,20.50
2018-02-03T20:25:52.592Z,20.50
2018-02-03T20:28:20.812Z,20.40
2018-02-03T20:30:48.738Z,20.40
2018-02-03T20:33:16.660Z,20.40
2018-02-03T20:35:45.477Z,20.40
2018-02-03T20:38:14.128Z,20.30
2018-02-03T20:40:42.014Z,20.30
2018-02-03T20:43:10.812Z,20.30
2018-02-03T20:45:39.438Z,20.30
2018-02-03T20:48:07.352Z,20.20
2018-02-03T20:50:35.548Z,20.20
2018-02-03T20:53:04.308Z,20.20
2018-02-03T20:55:32.222Z,20.20
2018-02-03T20:58:00.242Z,20.20
2018-02-03T21:00:28.148Z,20.20
2018-02-03T21:02:56.053Z,20.20
2018-02-03T21:05:24.077Z,20.10
2018-02-03T21:07:52.732Z,20.00
2018-02-03T21:10:20.775Z,20.00
2018-02-03T21:12:48.802Z,20.00
2018-02-03T21:15:17.456Z,20.10
2018-02-03T21:17:45.360Z,20.00
2018-02-03T21:20:14.153Z,20.00
2018-02-03T21:22:42.796Z,20.10
2018-02-03T21:25:10.689Z,20.00
2018-02-03T21:27:38.729Z,20.00
2018-02-03T21:30:06.622Z,20.00
2018-02-03T21:32:34.532Z,20.00
2018-02-03T21:35:02.550Z,20.00
2018-02-03T21:37:30.485Z,19.90
2018-02-03T21:39:58.384Z,19.90
2018-02-03T21:42:26.402Z,19.90
2018-02-03T21:44:55.055Z,19.80
2018-02-03T21:47:23.172Z,19.80
2018-02-03T21:49:51.960Z,19.80
2018-02-03T21:52:19.861Z,19.80
2018-02-03T21:54:47.754Z,19.80
2018-02-03T21:57:15.820Z,19.80
2018-02-03T21:59:43.694Z,19.80
2018-02-03T22:02:13.214Z,19.70
2018-02-03T22:04:41.258Z,19.70
2018-02-03T22:07:09.392Z,19.70
2018-02-03T22:09:38.067Z,19.60
2018-02-03T22:12:07.118Z,19.70
2018-02-03T22:14:35.052Z,19.60
2018-02-03T22:17:02.993Z,19.70
2018-02-03T22:19:31.048Z,19.60
2018-02-03T22:21:58.963Z,19.60
2018-02-03T22:24:26.892Z,19.60
2018-02-03T22:26:55.052Z,19.50
2018-02-03T22:29:22.972Z,19.50
2018-02-03T22:31:51.622Z,19.50
2018-02-03T22:34:19.666Z,19.50
2018-02-03T22:36:47.618Z,19.50
2018-02-03T22:39:15.513Z,19.50
2018-02-03T22:41:43.620Z,19.50
2018-02-03T22:44:11.649Z,19.50
2018-02-03T22:46:39.611Z,19.40
2018-02-03T22:49:07.639Z,19.50
2018-02-03T22:51:36.306Z,19.50
2018-02-03T22:54:04.376Z,19.50
2018-02-03T22:56:32.426Z,19.50
2018-02-03T22:59:00.350Z,19.50
2018-02-03T23:01:29.005Z,19.40
2018-02-03T23:03:57.049Z,19.40
2018-02-03T23:06:24.973Z,19.50
2018-02-03T23:08:53.644Z,19.40
2018-02-03T23:11:22.400Z,19.40
2018-02-03T23:13:50.468Z,19.40
2018-02-03T23:16:18.404Z,19.40
2018-02-03T23:18:47.202Z,19.30
2018-02-03T23:21:15.141Z,19.20
2018-02-03T23:23:43.929Z,19.10
2018-02-03T23:26:12.070Z,19.10
2018-02-03T23:28:39.990Z,19.10
2018-02-03T23:31:08.649Z,19.10
2018-02-03T23:33:36.712Z,19.10
2018-02-03T23:36:04.637Z,19.10
2018-02-03T23:38:32.553Z,19.00
2018-02-03T23:41:00.608Z,19.00
2018-02-03T23:43:28.529Z,19.00
2018-02-03T23:45:57.199Z,18.90
2018-02-03T23:48:25.242Z,18.90
2018-02-03T23:50:53.168Z,18.80
2018-02-03T23:53:21.078Z,18.80
2018-02-03T23:55:49.129Z,18.80
2018-02-03T23:58:17.053Z,18.90
